createdAt,value
2019-05-29T00:11:10.193Z,995.86
2019-05-29T00:12:59.604Z,995.77
2019-05-29T00:14:59.595Z,995.80
2019-05-29T00:15:59.576Z,995.71
2019-05-29T00:32:59.402Z,995.31
2019-05-29T00:38:59.343Z,995.33
2019-05-29T00:42:11.005Z,995.30
2019-05-29T00:45:59.259Z,995.35
2019-05-29T00:46:59.246Z,995.31
2019-05-29T00:47:59.239Z,995.34
2019-05-29T00:48:59.227Z,995.32
2019-05-29T00:50:59.215Z,995.31
2019-05-29T00:51:59.191Z,995.24
2019-05-29T00:52:59.192Z,995.18
2019-05-29T00:53:59.184Z,995.23
2019-05-29T00:54:59.160Z,995.11
2019-05-29T00:55:59.167Z,995.08
2019-05-29T00:56:59.193Z,995.03
2019-05-29T00:57:59.688Z,995.05
2019-05-29T00:58:59.120Z,995.04
2019-05-29T00:59:59.151Z,995.05
2019-05-29T01:00:59.103Z,994.98
2019-05-29T01:01:59.094Z,995.03
2019-05-29T01:02:59.066Z,994.97
2019-05-29T01:03:59.070Z,994.96
2019-05-29T01:04:59.063Z,994.98
2019-05-29T01:05:59.065Z,994.92
2019-05-29T01:06:59.034Z,994.95
2019-05-29T01:07:59.022Z,994.92
2019-05-29T01:08:59.029Z,994.90
2019-05-29T01:09:58.982Z,994.94
2019-05-29T01:10:59.003Z,994.89
2019-05-29T01:11:59.007Z,994.80
2019-05-29T01:13:08.983Z,994.78
2019-05-29T01:13:58.944Z,994.67
2019-05-29T01:14:58.938Z,994.75
2019-05-29T01:15:58.934Z,994.70
2019-05-29T01:16:58.913Z,994.68
2019-05-29T01:17:58.904Z,994.69
2019-05-29T01:18:58.905Z,994.61
2019-05-29T01:19:58.895Z,994.74
2019-05-29T01:21:58.862Z,994.74
2019-05-29T01:22:58.858Z,994.68
2019-05-29T01:23:58.845Z,994.69
2019-05-29T01:24:58.834Z,994.68
2019-05-29T01:25:58.825Z,994.74
2019-05-29T01:26:58.904Z,994.66
2019-05-29T01:27:58.805Z,994.66
2019-05-29T01:28:58.791Z,994.68
2019-05-29T01:29:58.795Z,994.59
2019-05-29T01:30:58.768Z,994.63
2019-05-29T01:31:58.762Z,994.61
2019-05-29T01:32:58.775Z,994.59
2019-05-29T01:33:58.741Z,994.56
2019-05-29T01:34:58.750Z,994.50
2019-05-29T01:35:58.748Z,994.52
2019-05-29T01:36:58.724Z,994.49
2019-05-29T01:37:58.742Z,994.43
2019-05-29T01:38:58.693Z,994.45
2019-05-29T01:39:58.670Z,994.45
2019-05-29T01:40:58.734Z,994.46
2019-05-29T01:41:58.647Z,994.42
2019-05-29T01:42:58.638Z,994.40
2019-05-29T01:44:08.918Z,994.41
2019-05-29T01:45:07.630Z,994.42
2019-05-29T01:45:59.604Z,994.38
2019-05-29T01:46:58.594Z,994.36
2019-05-29T01:47:58.597Z,994.50
2019-05-29T01:48:58.574Z,994.45
2019-05-29T01:49:58.589Z,994.47
2019-05-29T01:50:58.558Z,994.43
2019-05-29T01:52:58.545Z,994.42
2019-05-29T01:53:58.536Z,994.37
2019-05-29T01:54:58.527Z,994.37
2019-05-29T01:55:58.515Z,994.38
2019-05-29T01:56:58.490Z,994.34
2019-05-29T01:57:58.484Z,994.35
2019-05-29T01:58:58.498Z,994.32
2019-05-29T01:59:58.465Z,994.27
2019-05-29T02:00:58.468Z,994.30
2019-05-29T02:01:58.435Z,994.32
2019-05-29T02:02:58.457Z,994.20
2019-05-29T02:03:58.444Z,994.22
2019-05-29T02:04:58.431Z,994.15
2019-05-29T02:05:58.418Z,994.10
2019-05-29T02:06:58.391Z,994.15
2019-05-29T02:07:58.396Z,994.12
2019-05-29T02:08:58.401Z,993.99
2019-05-29T02:09:58.367Z,993.96
2019-05-29T02:10:58.348Z,993.98
2019-05-29T02:11:58.346Z,993.91
2019-05-29T02:12:58.331Z,993.92
2019-05-29T02:13:58.334Z,993.88
2019-05-29T02:15:23.013Z,993.88
2019-05-29T02:15:59.288Z,993.92
2019-05-29T02:16:58.279Z,993.91
2019-05-29T02:17:58.259Z,993.91
2019-05-29T02:18:58.269Z,993.85
2019-05-29T02:19:58.263Z,993.78
2019-05-29T02:20:58.238Z,993.71
2019-05-29T02:21:58.240Z,993.77
2019-05-29T02:23:58.243Z,993.67
2019-05-29T02:24:58.220Z,993.70
2019-05-29T02:25:58.197Z,993.66
2019-05-29T02:26:58.180Z,993.62
2019-05-29T02:27:58.170Z,993.58
2019-05-29T02:28:58.169Z,993.57
2019-05-29T02:29:58.201Z,993.54
2019-05-29T02:30:58.154Z,993.56
2019-05-29T02:31:58.140Z,993.53
2019-05-29T02:32:58.117Z,993.47
2019-05-29T02:33:58.107Z,993.46
2019-05-29T02:34:58.112Z,993.38
2019-05-29T02:35:58.121Z,993.39
2019-05-29T02:36:58.081Z,993.36
2019-05-29T02:37:58.112Z,993.33
2019-05-29T02:38:58.075Z,993.27
2019-05-29T02:39:58.053Z,993.38
2019-05-29T02:40:58.038Z,993.29
2019-05-29T02:41:58.039Z,993.27
2019-05-29T02:42:58.016Z,993.27
2019-05-29T02:43:58.023Z,993.26
2019-05-29T02:44:57.998Z,993.29
2019-05-29T02:46:08.286Z,993.30
2019-05-29T02:46:57.997Z,993.42
2019-05-29T02:47:57.951Z,993.40
2019-05-29T02:48:57.956Z,993.46
2019-05-29T02:49:57.941Z,993.43
2019-05-29T02:50:57.945Z,993.43
2019-05-29T02:51:57.914Z,993.46
2019-05-29T02:52:57.923Z,993.40
2019-05-29T02:54:57.902Z,993.45
2019-05-29T02:55:57.882Z,993.39
2019-05-29T02:56:57.874Z,993.43
2019-05-29T02:57:57.842Z,993.44
2019-05-29T02:58:57.872Z,993.38
2019-05-29T02:59:57.843Z,993.40
2019-05-29T03:00:57.837Z,993.35
2019-05-29T03:01:57.812Z,993.33
2019-05-29T03:02:57.832Z,993.31
2019-05-29T03:03:57.800Z,993.33
2019-05-29T03:04:57.791Z,993.28
2019-05-29T03:05:57.796Z,993.28
2019-05-29T03:06:57.804Z,993.31
2019-05-29T03:07:57.761Z,993.27
2019-05-29T03:08:57.738Z,993.29
2019-05-29T03:09:57.743Z,993.20
2019-05-29T03:10:57.728Z,993.24
2019-05-29T03:12:00.243Z,993.19
2019-05-29T03:12:57.721Z,993.19
2019-05-29T03:13:57.678Z,993.20
2019-05-29T03:14:57.681Z,993.19
2019-05-29T03:16:09.513Z,993.18
2019-05-29T03:17:07.858Z,993.18
2019-05-29T03:17:57.644Z,993.17
2019-05-29T03:18:57.635Z,993.15
2019-05-29T03:19:57.613Z,993.10
2019-05-29T03:20:57.615Z,993.15
2019-05-29T03:21:57.607Z,993.11
2019-05-29T03:22:57.607Z,993.10
2019-05-29T03:23:57.585Z,993.16
2019-05-29T03:25:57.566Z,993.13
2019-05-29T03:26:57.559Z,993.11
2019-05-29T03:27:57.543Z,993.19
2019-05-29T03:28:57.539Z,993.11
2019-05-29T03:29:57.526Z,993.09
2019-05-29T03:30:57.519Z,993.12
2019-05-29T03:31:57.509Z,993.16
2019-05-29T03:32:57.510Z,993.14
2019-05-29T03:33:57.494Z,993.10
2019-05-29T03:34:57.462Z,993.10
2019-05-29T03:35:57.477Z,993.10
2019-05-29T03:36:57.446Z,993.10
2019-05-29T03:37:58.938Z,992.98
2019-05-29T03:38:57.465Z,992.98
2019-05-29T03:39:57.422Z,992.96
2019-05-29T03:40:57.402Z,992.85
2019-05-29T03:41:57.413Z,992.87
2019-05-29T03:42:57.391Z,992.86
2019-05-29T03:43:57.409Z,992.94
2019-05-29T03:44:57.369Z,992.91
2019-05-29T03:45:57.353Z,992.92
2019-05-29T03:46:57.344Z,992.89
2019-05-29T03:48:08.588Z,992.84
2019-05-29T03:48:57.323Z,992.82
2019-05-29T03:49:57.348Z,992.83
2019-05-29T03:50:57.307Z,992.80
2019-05-29T03:51:57.274Z,992.80
2019-05-29T03:52:57.285Z,992.80
2019-05-29T03:53:57.266Z,992.83
2019-05-29T03:54:57.251Z,992.89
2019-05-29T03:55:57.250Z,992.87
2019-05-29T03:57:57.217Z,992.82
2019-05-29T03:58:57.209Z,992.83
2019-05-29T03:59:57.192Z,992.83
2019-05-29T04:00:57.236Z,992.94
2019-05-29T04:01:57.178Z,992.85
2019-05-29T04:02:57.167Z,992.91
2019-05-29T04:03:57.153Z,992.85
2019-05-29T04:04:57.134Z,992.82
2019-05-29T04:05:57.145Z,992.84
2019-05-29T04:06:57.136Z,992.83
2019-05-29T04:07:57.117Z,992.86
2019-05-29T04:08:57.095Z,992.81
2019-05-29T04:09:57.096Z,992.81
2019-05-29T04:10:57.082Z,992.83
2019-05-29T04:11:57.075Z,992.75
2019-05-29T04:12:57.051Z,992.74
2019-05-29T04:13:57.049Z,992.73
2019-05-29T04:14:57.049Z,992.80
2019-05-29T04:15:57.066Z,992.74
2019-05-29T04:16:59.842Z,992.81
2019-05-29T04:17:57.009Z,992.80
2019-05-29T04:19:08.233Z,992.75
2019-05-29T04:19:56.987Z,992.77
2019-05-29T04:20:56.970Z,992.73
2019-05-29T04:21:56.965Z,992.73
2019-05-29T04:22:56.961Z,992.80
2019-05-29T04:23:56.955Z,992.75
2019-05-29T04:24:56.921Z,992.72
2019-05-29T04:25:56.921Z,992.80
2019-05-29T04:26:56.910Z,992.76
2019-05-29T04:27:56.940Z,992.76
2019-05-29T04:29:56.873Z,992.82
2019-05-29T04:30:56.860Z,992.81
2019-05-29T04:31:56.854Z,992.81
2019-05-29T04:32:56.888Z,992.77
2019-05-29T04:33:56.830Z,992.82
2019-05-29T04:34:56.832Z,992.83
2019-05-29T04:35:56.837Z,992.84
2019-05-29T04:36:56.807Z,992.79
2019-05-29T04:37:56.782Z,992.76
2019-05-29T04:38:56.883Z,992.75
2019-05-29T04:39:56.771Z,992.63
2019-05-29T04:40:56.776Z,992.79
2019-05-29T04:41:56.778Z,992.69
2019-05-29T04:42:56.743Z,992.82
2019-05-29T04:43:57.259Z,992.85
2019-05-29T04:44:56.709Z,992.72
2019-05-29T04:45:56.706Z,992.76
2019-05-29T04:47:10.084Z,992.80
2019-05-29T04:47:57.692Z,992.74
2019-05-29T04:48:56.667Z,992.74
2019-05-29T04:50:08.578Z,992.79
2019-05-29T04:50:56.644Z,992.72
2019-05-29T04:51:56.642Z,992.68
2019-05-29T04:52:56.619Z,992.66
2019-05-29T04:53:56.609Z,992.69
2019-05-29T04:54:56.619Z,992.68
2019-05-29T04:55:56.586Z,992.57
2019-05-29T04:56:56.588Z,992.62
2019-05-29T04:58:56.568Z,992.59
2019-05-29T04:59:56.569Z,992.59
2019-05-29T05:01:56.524Z,992.63
2019-05-29T05:02:56.516Z,992.60
2019-05-29T05:03:56.518Z,992.60
2019-05-29T05:04:56.494Z,992.64
2019-05-29T05:05:56.523Z,992.61
2019-05-29T05:06:56.488Z,992.64
2019-05-29T05:07:56.450Z,992.54
2019-05-29T05:08:56.515Z,992.56
2019-05-29T05:09:56.466Z,992.53
2019-05-29T05:10:56.446Z,992.52
2019-05-29T05:12:56.420Z,992.54
2019-05-29T05:13:56.398Z,992.56
2019-05-29T05:14:56.384Z,992.54
2019-05-29T05:15:56.435Z,992.53
2019-05-29T05:16:56.372Z,992.57
2019-05-29T05:17:56.363Z,992.56
2019-05-29T05:18:56.398Z,992.52
2019-05-29T05:19:56.332Z,992.54
2019-05-29T05:21:06.814Z,992.51
2019-05-29T05:21:57.041Z,992.52
2019-05-29T05:22:56.300Z,992.46
2019-05-29T05:23:56.287Z,992.48
2019-05-29T05:24:56.292Z,992.44
2019-05-29T05:25:56.284Z,992.44
2019-05-29T05:27:56.253Z,992.47
2019-05-29T05:29:56.231Z,992.40
2019-05-29T05:30:56.230Z,992.42
2019-05-29T05:31:56.217Z,992.38
2019-05-29T05:32:56.303Z,992.46
2019-05-29T05:52:07.960Z,992.30
2019-05-29T06:04:55.859Z,992.43
2019-05-29T06:23:06.644Z,992.59
2019-05-29T06:36:55.508Z,992.75
2019-05-29T06:54:05.523Z,992.72
2019-05-29T07:08:55.174Z,992.71
2019-05-29T07:25:05.304Z,992.63
2019-05-29T07:29:54.941Z,992.56
2019-05-29T07:40:54.831Z,992.55
2019-05-29T07:41:54.816Z,992.55
2019-05-29T07:42:56.605Z,992.51
2019-05-29T07:43:54.823Z,992.48
2019-05-29T07:44:54.792Z,992.50
2019-05-29T07:45:54.759Z,992.52
2019-05-29T07:46:54.761Z,992.52
2019-05-29T07:47:54.769Z,992.49
2019-05-29T07:48:54.804Z,992.48
2019-05-29T07:49:54.765Z,992.47
2019-05-29T07:51:06.696Z,992.50
2019-05-29T07:51:55.764Z,992.52
2019-05-29T07:52:54.710Z,992.55
2019-05-29T07:53:54.723Z,992.57
2019-05-29T07:54:54.686Z,992.57
2019-05-29T07:56:05.161Z,992.63
2019-05-29T07:56:55.163Z,992.57
2019-05-29T07:57:54.641Z,992.54
2019-05-29T07:59:02.608Z,992.57
2019-05-29T07:59:55.621Z,992.53
2019-05-29T08:01:11.773Z,992.53
2019-05-29T08:01:55.615Z,992.52
2019-05-29T08:02:54.604Z,992.52
2019-05-29T08:04:54.609Z,992.54
2019-05-29T08:05:54.586Z,992.57
2019-05-29T08:06:54.788Z,992.57
2019-05-29T08:07:54.541Z,992.55
2019-05-29T08:08:54.547Z,992.59
2019-05-29T08:09:54.522Z,992.63
2019-05-29T08:10:54.510Z,992.59
2019-05-29T08:11:54.489Z,992.66
2019-05-29T08:12:55.940Z,992.68
2019-05-29T08:13:54.479Z,992.64
2019-05-29T08:14:54.504Z,992.63
2019-05-29T08:16:02.533Z,992.67
2019-05-29T08:16:55.442Z,992.69
2019-05-29T08:17:54.442Z,992.77
2019-05-29T08:18:54.764Z,992.71
2019-05-29T08:20:06.130Z,992.71
2019-05-29T08:20:55.419Z,992.75
2019-05-29T08:21:54.436Z,992.71
2019-05-29T08:22:54.391Z,992.74
2019-05-29T08:23:54.383Z,992.72
2019-05-29T08:24:54.384Z,992.71
2019-05-29T08:25:54.359Z,992.78
2019-05-29T08:27:04.712Z,992.73
2019-05-29T08:27:54.318Z,992.80
2019-05-29T08:28:54.290Z,992.80
2019-05-29T08:29:54.292Z,992.85
2019-05-29T08:30:56.542Z,992.85
2019-05-29T08:31:54.281Z,992.86
2019-05-29T08:32:54.278Z,992.91
2019-05-29T08:33:54.249Z,992.87
2019-05-29T08:35:59.836Z,992.98
2019-05-29T08:37:06.509Z,992.98
2019-05-29T08:37:55.253Z,993.01
2019-05-29T08:38:54.213Z,993.09
2019-05-29T08:39:54.283Z,993.05
2019-05-29T08:40:54.191Z,993.09
2019-05-29T08:42:19.553Z,993.11
2019-05-29T08:42:55.162Z,993.12
2019-05-29T08:43:54.154Z,993.14
2019-05-29T08:44:54.141Z,993.09
2019-05-29T08:45:54.129Z,993.20
2019-05-29T08:47:09.160Z,993.24
2019-05-29T08:47:55.152Z,993.18
2019-05-29T08:48:54.123Z,993.27
2019-05-29T08:49:54.711Z,993.24
2019-05-29T08:50:54.090Z,993.19
2019-05-29T08:52:10.442Z,993.26
2019-05-29T08:52:55.108Z,993.36
2019-05-29T08:53:54.857Z,993.29
2019-05-29T08:54:54.029Z,993.31
2019-05-29T08:55:54.008Z,993.29
2019-05-29T08:56:54.058Z,993.34
2019-05-29T08:58:04.158Z,993.32
2019-05-29T08:58:53.992Z,993.33
2019-05-29T08:59:54.050Z,993.37
2019-05-29T09:00:55.359Z,993.42
2019-05-29T09:01:55.602Z,993.44
2019-05-29T09:02:53.990Z,993.44
2019-05-29T09:03:53.979Z,993.47
2019-05-29T09:04:54.901Z,993.45
2019-05-29T09:06:53.950Z,993.44
2019-05-29T09:07:54.466Z,993.48
2019-05-29T09:08:55.006Z,993.46
2019-05-29T09:09:53.961Z,993.47
2019-05-29T09:10:54.414Z,993.48
2019-05-29T09:11:54.075Z,993.42
2019-05-29T09:13:03.667Z,993.47
2019-05-29T09:13:54.833Z,993.51
2019-05-29T09:14:53.818Z,993.47
2019-05-29T09:15:53.818Z,993.56
2019-05-29T09:16:53.809Z,993.55
2019-05-29T09:17:53.866Z,993.59
2019-05-29T09:18:53.835Z,993.61
2019-05-29T09:19:53.793Z,993.57
2019-05-29T09:21:02.792Z,993.62
2019-05-29T09:21:54.745Z,993.61
2019-05-29T09:22:53.718Z,993.59
2019-05-29T09:23:53.728Z,993.56
2019-05-29T09:24:53.817Z,993.58
2019-05-29T09:25:53.739Z,993.57
2019-05-29T09:26:53.689Z,993.60
2019-05-29T09:27:53.715Z,993.62
2019-05-29T09:29:05.422Z,993.62
2019-05-29T09:29:53.717Z,993.65
2019-05-29T09:30:53.647Z,993.70
2019-05-29T09:31:53.630Z,993.66
2019-05-29T09:32:53.635Z,993.70
2019-05-29T09:33:53.607Z,993.75
2019-05-29T09:34:53.658Z,993.78
2019-05-29T09:35:53.608Z,993.73
2019-05-29T09:36:55.759Z,993.79
2019-05-29T09:37:53.565Z,993.77
2019-05-29T09:38:53.896Z,993.74
2019-05-29T09:39:53.572Z,993.80
2019-05-29T09:40:53.572Z,993.72
2019-05-29T09:41:53.549Z,993.74
2019-05-29T09:42:53.546Z,993.77
2019-05-29T09:43:59.224Z,993.72
2019-05-29T09:44:54.498Z,993.75
2019-05-29T09:45:53.498Z,993.84
2019-05-29T09:46:53.499Z,993.89
2019-05-29T09:47:53.528Z,993.95
2019-05-29T09:48:53.457Z,993.95
2019-05-29T09:49:53.477Z,993.86
2019-05-29T09:50:53.487Z,993.98
2019-05-29T09:51:54.141Z,993.91
2019-05-29T09:52:55.349Z,993.95
2019-05-29T09:53:54.497Z,993.94
2019-05-29T09:54:54.640Z,993.99
2019-05-29T09:55:54.233Z,994.03
2019-05-29T09:56:54.719Z,994.03
2019-05-29T09:57:54.124Z,994.03
2019-05-29T09:58:55.238Z,994.12
2019-05-29T10:00:04.889Z,994.04
2019-05-29T10:01:15.410Z,994.10
2019-05-29T10:01:56.341Z,994.04
2019-05-29T10:02:55.443Z,994.04
2019-05-29T10:03:55.342Z,994.07
2019-05-29T10:04:54.793Z,994.14
2019-05-29T10:05:54.653Z,994.13
2019-05-29T10:06:54.916Z,994.11
2019-05-29T10:07:54.531Z,994.14
2019-05-29T10:08:54.973Z,994.16
2019-05-29T10:09:54.840Z,994.23
2019-05-29T10:11:03.937Z,994.21
2019-05-29T10:11:58.038Z,994.22
2019-05-29T10:12:55.246Z,994.28
2019-05-29T10:13:53.914Z,994.24
2019-05-29T10:14:53.695Z,994.23
2019-05-29T10:15:54.044Z,994.15
2019-05-29T10:16:56.012Z,994.12
2019-05-29T10:17:54.109Z,994.12
2019-05-29T10:18:54.263Z,994.19
2019-05-29T10:19:55.419Z,994.16
2019-05-29T10:20:53.105Z,994.14
2019-05-29T10:21:53.095Z,994.27
2019-05-29T10:22:53.155Z,994.25
2019-05-29T10:23:53.087Z,994.34
2019-05-29T10:24:53.087Z,994.29
2019-05-29T10:25:53.063Z,994.31
2019-05-29T10:26:53.045Z,994.35
2019-05-29T10:27:53.103Z,994.30
2019-05-29T10:29:54.323Z,994.36
2019-05-29T10:31:04.834Z,994.50
2019-05-29T10:31:53.593Z,994.50
2019-05-29T10:32:53.109Z,994.51
2019-05-29T10:33:52.966Z,994.51
2019-05-29T10:34:38.797Z,994.38
2019-05-29T10:34:52.966Z,994.53
2019-05-29T10:35:55.304Z,994.57
2019-05-29T10:36:54.632Z,994.55
2019-05-29T10:37:53.124Z,994.57
2019-05-29T10:38:52.926Z,994.55
2019-05-29T10:39:53.074Z,994.53
2019-05-29T10:41:05.298Z,994.62
2019-05-29T10:41:53.907Z,994.62
2019-05-29T10:42:53.510Z,994.59
2019-05-29T10:43:53.339Z,994.65
2019-05-29T10:44:53.280Z,994.62
2019-05-29T10:45:54.058Z,994.69
2019-05-29T10:46:54.691Z,994.69
2019-05-29T10:47:54.110Z,994.67
2019-05-29T10:48:55.959Z,994.63
2019-05-29T10:49:53.841Z,994.66
2019-05-29T10:50:54.148Z,994.63
2019-05-29T10:52:05.768Z,994.55
2019-05-29T10:52:54.234Z,994.65
2019-05-29T10:53:56.038Z,994.63
2019-05-29T10:54:54.453Z,994.71
2019-05-29T10:55:52.775Z,994.73
2019-05-29T10:56:53.068Z,994.77
2019-05-29T10:57:53.189Z,994.79
2019-05-29T10:58:58.985Z,994.81
2019-05-29T10:59:54.691Z,994.82
2019-05-29T11:00:53.405Z,994.91
2019-05-29T11:02:02.886Z,994.86
2019-05-29T11:02:55.181Z,994.90
2019-05-29T11:03:53.906Z,994.80
2019-05-29T11:04:56.396Z,994.86
2019-05-29T11:05:53.837Z,994.94
2019-05-29T11:06:54.629Z,994.92
2019-05-29T11:07:53.823Z,994.92
2019-05-29T11:08:54.033Z,995.00
2019-05-29T11:09:52.615Z,994.96
2019-05-29T11:10:52.584Z,995.09
2019-05-29T11:11:53.252Z,995.05
2019-05-29T11:12:52.742Z,995.12
2019-05-29T11:13:52.864Z,995.13
2019-05-29T11:14:52.946Z,995.14
2019-05-29T11:15:52.840Z,995.13
2019-05-29T11:16:53.380Z,995.11
2019-05-29T11:17:53.256Z,995.15
2019-05-29T11:18:53.392Z,995.16
2019-05-29T11:19:53.567Z,995.12
2019-05-29T11:20:53.466Z,995.19
2019-05-29T11:21:53.853Z,995.13
2019-05-29T11:22:53.576Z,995.16
2019-05-29T11:23:53.640Z,995.19
2019-05-29T11:24:52.552Z,995.15
2019-05-29T11:25:52.448Z,995.15
2019-05-29T11:26:52.646Z,995.20
2019-05-29T11:27:53.208Z,995.24
2019-05-29T11:28:52.463Z,995.34
2019-05-29T11:29:53.316Z,995.27
2019-05-29T11:30:53.674Z,995.29
2019-05-29T11:31:53.414Z,995.34
2019-05-29T11:33:04.424Z,995.41
2019-05-29T11:33:53.074Z,995.34
2019-05-29T11:34:53.695Z,995.36
2019-05-29T11:36:05.994Z,995.37
2019-05-29T11:36:54.261Z,995.42
2019-05-29T11:37:52.606Z,995.53
2019-05-29T11:38:52.565Z,995.53
2019-05-29T11:39:52.640Z,995.52
2019-05-29T11:41:13.862Z,995.64
2019-05-29T11:41:53.247Z,995.62
2019-05-29T11:42:52.789Z,995.51
2019-05-29T11:43:52.691Z,995.60
2019-05-29T11:44:53.474Z,995.67
2019-05-29T11:45:53.134Z,995.70
2019-05-29T11:46:52.235Z,995.64
2019-05-29T11:47:54.044Z,995.69
2019-05-29T11:48:53.145Z,995.69
2019-05-29T11:49:53.137Z,995.71
2019-05-29T11:50:52.230Z,995.64
2019-05-29T11:51:53.638Z,995.70
2019-05-29T11:52:52.355Z,995.71
2019-05-29T11:53:53.307Z,995.73
2019-05-29T11:54:55.936Z,995.76
2019-05-29T11:55:53.993Z,995.69
2019-05-29T11:56:53.724Z,995.67
2019-05-29T11:57:52.110Z,995.69
2019-05-29T11:58:52.736Z,995.76
2019-05-29T11:59:52.065Z,995.74
2019-05-29T12:00:52.914Z,995.78
2019-05-29T12:01:52.927Z,995.79
2019-05-29T12:02:53.636Z,995.72
2019-05-29T12:04:23.136Z,995.82
2019-05-29T12:04:53.149Z,995.82
2019-05-29T12:05:53.369Z,995.84
2019-05-29T12:06:53.103Z,995.87
2019-05-29T12:07:53.327Z,995.83
2019-05-29T12:08:51.957Z,995.82
2019-05-29T12:09:53.220Z,995.74
2019-05-29T12:10:52.999Z,995.85
2019-05-29T12:11:53.628Z,995.89
2019-05-29T12:12:53.260Z,995.86
2019-05-29T12:13:51.910Z,995.86
2019-05-29T12:15:00.301Z,995.84
2019-05-29T12:15:53.659Z,995.89
2019-05-29T12:16:51.881Z,995.84
2019-05-29T12:17:59.125Z,995.86
2019-05-29T12:18:53.638Z,995.96
2019-05-29T12:19:51.948Z,995.93
2019-05-29T12:20:52.121Z,995.97
2019-05-29T12:21:52.287Z,995.98
2019-05-29T12:23:13.319Z,995.93
2019-05-29T12:23:53.927Z,995.91
2019-05-29T12:24:52.539Z,995.94
2019-05-29T12:26:11.612Z,995.95
2019-05-29T12:26:52.827Z,995.95
2019-05-29T12:27:52.738Z,995.92
2019-05-29T12:28:53.482Z,995.98
2019-05-29T12:29:52.597Z,995.97
2019-05-29T12:30:53.341Z,996.03
2019-05-29T12:31:52.876Z,996.00
2019-05-29T12:32:52.721Z,996.02
2019-05-29T12:33:52.823Z,996.01
2019-05-29T12:35:04.402Z,995.96
2019-05-29T12:35:52.783Z,995.99
2019-05-29T12:36:51.653Z,995.98
2019-05-29T12:37:51.643Z,995.93
2019-05-29T12:38:51.656Z,996.09
2019-05-29T12:39:51.647Z,996.11
2019-05-29T12:40:51.605Z,996.18
2019-05-29T12:41:51.601Z,996.08
2019-05-29T12:42:51.665Z,996.09
2019-05-29T12:43:51.645Z,996.11
2019-05-29T12:44:51.591Z,996.11
2019-05-29T12:45:51.707Z,996.14
2019-05-29T12:46:51.552Z,996.22
2019-05-29T12:47:51.552Z,996.16
2019-05-29T12:48:51.532Z,996.17
2019-05-29T12:49:51.545Z,996.18
2019-05-29T12:50:51.514Z,996.16
2019-05-29T12:51:51.501Z,996.21
2019-05-29T12:52:51.484Z,996.14
2019-05-29T12:53:51.490Z,996.12
2019-05-29T12:54:51.508Z,996.18
2019-05-29T12:55:51.456Z,996.18
2019-05-29T12:56:51.648Z,996.14
2019-05-29T12:57:51.451Z,996.20
2019-05-29T12:58:51.482Z,996.16
2019-05-29T12:59:51.446Z,996.25
2019-05-29T13:00:51.501Z,996.25
2019-05-29T13:01:51.393Z,996.18
2019-05-29T13:02:51.384Z,996.25
2019-05-29T13:03:51.406Z,996.23
2019-05-29T13:05:07.194Z,996.21
2019-05-29T13:06:02.469Z,996.25
2019-05-29T13:06:51.351Z,996.23
2019-05-29T13:07:51.324Z,996.33
2019-05-29T13:08:51.340Z,996.32
2019-05-29T13:09:51.299Z,996.36
2019-05-29T13:10:51.305Z,996.33
2019-05-29T13:11:51.283Z,996.35
2019-05-29T13:12:51.803Z,996.27
2019-05-29T13:13:51.272Z,996.37
2019-05-29T13:14:51.305Z,996.41
2019-05-29T13:15:51.411Z,996.38
2019-05-29T13:16:51.328Z,996.43
2019-05-29T13:17:55.554Z,996.41
2019-05-29T13:18:52.221Z,996.38
2019-05-29T13:19:51.203Z,996.52
2019-05-29T13:20:51.214Z,996.46
2019-05-29T13:21:51.196Z,996.43
2019-05-29T13:22:51.173Z,996.48
2019-05-29T13:23:51.177Z,996.45
2019-05-29T13:24:52.846Z,996.52
2019-05-29T13:25:51.159Z,996.47
2019-05-29T13:26:51.184Z,996.53
2019-05-29T13:27:51.134Z,996.53
2019-05-29T13:28:51.130Z,996.46
2019-05-29T13:29:51.170Z,996.51
2019-05-29T13:30:51.139Z,996.49
2019-05-29T13:31:53.298Z,996.43
2019-05-29T13:32:51.122Z,996.44
2019-05-29T13:33:51.084Z,996.49
2019-05-29T13:34:51.050Z,996.53
2019-05-29T13:35:51.035Z,996.52
2019-05-29T13:37:06.679Z,996.48
2019-05-29T13:37:52.003Z,996.42
2019-05-29T13:38:50.997Z,996.46
2019-05-29T13:39:50.983Z,996.53
2019-05-29T13:40:50.995Z,996.50
2019-05-29T13:41:50.986Z,996.48
2019-05-29T13:42:50.953Z,996.52
2019-05-29T13:43:50.962Z,996.48
2019-05-29T13:44:51.001Z,996.58
2019-05-29T13:45:50.946Z,996.62
2019-05-29T13:46:50.973Z,996.55
2019-05-29T13:47:50.914Z,996.52
2019-05-29T13:48:50.901Z,996.52
2019-05-29T13:49:51.631Z,996.49
2019-05-29T13:50:50.892Z,996.49
2019-05-29T13:51:50.983Z,996.50
2019-05-29T13:52:50.861Z,996.51
2019-05-29T13:54:02.519Z,996.52
2019-05-29T13:54:51.835Z,996.52
2019-05-29T13:55:50.828Z,996.53
2019-05-29T13:56:50.936Z,996.55
2019-05-29T13:57:50.821Z,996.58
2019-05-29T13:58:50.795Z,996.59
2019-05-29T13:59:50.782Z,996.57
2019-05-29T14:00:50.766Z,996.60
2019-05-29T14:01:50.752Z,996.62
2019-05-29T14:02:50.839Z,996.65
2019-05-29T14:03:50.876Z,996.72
2019-05-29T14:04:50.746Z,996.65
2019-05-29T14:05:50.754Z,996.62
2019-05-29T14:06:52.889Z,996.57
2019-05-29T14:08:00.976Z,996.68
2019-05-29T14:08:50.703Z,996.76
2019-05-29T14:09:50.689Z,996.71
2019-05-29T14:10:50.676Z,996.82
2019-05-29T14:11:50.642Z,996.76
2019-05-29T14:12:50.638Z,996.79
2019-05-29T14:13:50.659Z,996.74
2019-05-29T14:14:50.626Z,996.77
2019-05-29T14:15:50.618Z,996.78
2019-05-29T14:16:50.596Z,996.77
2019-05-29T14:17:50.596Z,996.74
2019-05-29T14:18:50.690Z,996.82
2019-05-29T14:19:50.564Z,996.83
2019-05-29T14:20:50.578Z,996.89
2019-05-29T14:21:50.554Z,996.81
2019-05-29T14:22:50.534Z,996.80
2019-05-29T14:23:50.525Z,996.83
2019-05-29T14:24:50.550Z,996.85
2019-05-29T14:25:50.497Z,996.87
2019-05-29T14:26:50.536Z,996.81
2019-05-29T14:27:50.508Z,996.80
2019-05-29T14:28:50.520Z,996.72
2019-05-29T14:29:50.505Z,996.75
2019-05-29T14:30:50.459Z,996.81
2019-05-29T14:31:50.444Z,996.78
2019-05-29T14:32:50.448Z,996.83
2019-05-29T14:33:50.428Z,996.81
2019-05-29T14:34:50.442Z,996.76
2019-05-29T14:35:50.395Z,996.77
2019-05-29T14:36:50.385Z,996.85
2019-05-29T14:39:03.711Z,996.79
2019-05-29T14:39:50.352Z,996.83
2019-05-29T14:40:50.339Z,996.95
2019-05-29T14:41:50.338Z,996.91
2019-05-29T14:42:50.318Z,996.96
2019-05-29T14:43:50.313Z,996.93
2019-05-29T14:44:50.354Z,996.94
2019-05-29T14:45:50.301Z,996.97
2019-05-29T14:47:50.261Z,996.99
2019-05-29T14:48:50.243Z,997.00
2019-05-29T14:49:50.250Z,997.01
2019-05-29T14:50:50.243Z,996.96
2019-05-29T14:51:50.352Z,997.05
2019-05-29T14:52:50.205Z,997.10
2019-05-29T14:53:50.202Z,997.14
2019-05-29T14:54:50.203Z,997.04
2019-05-29T14:55:50.232Z,997.06
2019-05-29T14:56:50.211Z,997.10
2019-05-29T14:57:50.160Z,997.11
2019-05-29T14:58:50.190Z,997.10
2019-05-29T14:59:50.290Z,997.09
2019-05-29T15:01:51.371Z,997.07
2019-05-29T15:02:50.109Z,997.14
2019-05-29T15:03:50.124Z,997.11
2019-05-29T15:04:50.096Z,997.11
2019-05-29T15:05:50.070Z,997.26
2019-05-29T15:06:50.084Z,997.18
2019-05-29T15:07:50.057Z,997.21
2019-05-29T15:10:00.557Z,997.20
2019-05-29T15:15:49.975Z,997.22
2019-05-29T15:40:59.673Z,997.33
2019-05-29T15:57:49.519Z,997.53
2019-05-29T15:59:49.547Z,997.50
2019-05-29T16:00:49.532Z,997.61
2019-05-29T16:03:49.449Z,997.57
2019-05-29T16:04:49.442Z,997.61
2019-05-29T16:05:49.423Z,997.68
2019-05-29T16:06:49.442Z,997.54
2019-05-29T16:08:49.401Z,997.55
2019-05-29T16:09:49.389Z,997.69
2019-05-29T16:11:59.378Z,997.67
2019-05-29T16:12:49.357Z,997.66
2019-05-29T16:14:49.328Z,997.68
2019-05-29T16:15:49.315Z,997.69
2019-05-29T16:16:49.319Z,997.73